Etusivu
METAR-TAF:

METAR-TAF

Lentoasemat :

Wheaton Municipal Airport

Wheaton, Minnesota, Yhdysvallat

Leveyspiiri: 45-42N, Pituuspiiri: 096-30W, korkeus merenpinnasta: 313 m

Tämänhetkinen sää

Tämä raportti tehtiin 5 minuuttia sitten, kello 11.56 UTC
Tuuli 4 kn etelästä
Lämpötila -8°C
Kosteus 73%
Ilmanpaine 1020 hPa
Näkyvyys: 16.1 km
selkeää

METAR: KETH 101156Z AUTO 17004KT 10SM CLR M08/M12 A3013 RMK AO2

Aika: 06:01 (12:01 UTC)


TAF: puuttuu

Säähavainnot ja -ennusteet yli 4000 lentoasemalta (METAR- ja TAF-raportit).

Käytössä olevat sääasemat on merkitty karttaan keltaisilla ja punaisilla pisteillä.

Aseta hiiri pisteen päälle nähdäksesi sääaseman nimen.

Klikkaa sitten nähdäksesi säähavainnot ja -ennusteet.

Kartan vaihtaminen: klikkaa mustalla rastilla varustettuja vihreitä pisteitä, niin voit zoomata sisään; viivalla varustettua vihreää pistettä, niin voit zoomata ulos tai vihreitä nuolia, niin pääset viereisille kartoille.


METAR-TAF: